Time;durP1;ratioP1;P1;durP2;ratioP2;P2;SDS_P1;SDS_P2;PMS_P1;PMS_P2;Temp;Humidity;BMP_temperature;BMP_pressure;BME280_temperature;BME280_humidity;BME280_pressure;Samples;Min_cycle;Max_cycle;Signal;HPM_P1;HPM_P2
2023/03/16 00:02:23;;;;;;;1.23;0.30;;;;;;;-1.55;61.74;101075.78;4988196;28;20051;-79
2023/03/16 00:04:50;;;;;;;0.45;0.10;;;;;;;-1.38;61.75;101111.41;4992643;28;20046;-79
2023/03/16 00:07:17;;;;;;;0.73;0.10;;;;;;;-1.40;61.46;101118.16;4992805;28;20124;-79
2023/03/16 00:09:44;;;;;;;3.50;0.10;;;;;;;-1.42;61.43;101117.25;4995533;28;20046;-79
2023/03/16 00:12:14;;;;;;;3.25;0.43;;;;;;;-1.48;62.14;101116.16;4993068;28;20060;-79
2023/03/16 00:14:43;;;;;;;0.93;0.30;;;;;;;-1.46;61.71;101123.09;4996022;28;20046;-79
2023/03/16 00:17:17;;;;;;;1.70;0.05;;;;;;;-1.46;62.03;101128.19;4989534;28;20050;-79
2023/03/16 00:19:46;;;;;;;0.90;0.30;;;;;;;-1.48;62.24;101126.41;4991533;28;20561;-79
2023/03/16 00:22:13;;;;;;;2.13;0.20;;;;;;;-1.65;61.65;101103.63;4992991;28;20054;-79
2023/03/16 00:24:42;;;;;;;0.85;0.20;;;;;;;-1.53;61.69;101130.50;4992224;28;20037;-79
2023/03/16 00:27:13;;;;;;;1.10;0.22;;;;;;;-1.60;62.21;101132.81;4989460;28;20546;-79
2023/03/16 00:29:46;;;;;;;1.35;0.10;;;;;;;-1.80;62.49;101103.06;4986415;28;20077;-79
2023/03/16 00:32:15;;;;;;;0.82;0.20;;;;;;;-1.59;62.13;101137.16;4985061;28;20053;-79
2023/03/16 00:34:42;;;;;;;0.95;0.30;;;;;;;-1.64;62.03;101130.97;4993012;28;20541;-79
2023/03/16 00:37:12;;;;;;;5.90;0.20;;;;;;;-1.73;61.75;101128.09;4990207;28;20050;-79
2023/03/16 00:39:40;;;;;;;2.15;0.10;;;;;;;-1.63;62.08;101142.97;4992105;28;20082;-79
2023/03/16 00:42:08;;;;;;;0.65;0.20;;;;;;;-1.76;62.56;101127.13;4994571;28;20101;-79
2023/03/16 00:44:36;;;;;;;1.02;0.22;;;;;;;-1.65;62.45;101144.63;4993450;28;20043;-79
2023/03/16 00:47:05;;;;;;;0.60;0.20;;;;;;;-1.66;62.34;101157.34;4989836;28;20129;-79
2023/03/16 00:49:33;;;;;;;1.73;0.10;;;;;;;-1.72;62.11;101147.75;4985657;28;20104;-79
2023/03/16 00:52:01;;;;;;;2.88;0.30;;;;;;;-1.69;62.41;101157.25;4982323;28;20047;-79
2023/03/16 00:54:31;;;;;;;0.90;0.10;;;;;;;-1.71;62.14;101164.84;4987357;28;20057;-78
2023/03/16 00:56:58;;;;;;;0.40;0.10;;;;;;;-1.74;62.09;101163.88;4986189;28;20050;-78
2023/03/16 00:59:26;;;;;;;1.38;0.10;;;;;;;-1.97;61.92;101132.28;4989937;28;20057;-78
2023/03/16 01:01:53;;;;;;;0.73;0.10;;;;;;;-2.02;62.15;101132.13;4977726;28;20800;-78
2023/03/16 01:04:22;;;;;;;0.10;0.00;;;;;;;-1.81;62.26;101170.47;4994408;28;20393;-78
2023/03/16 01:06:49;;;;;;;0.38;0.20;;;;;;;-1.85;62.48;101174.59;4992809;28;20046;-78
2023/03/16 01:09:16;;;;;;;0.10;0.10;;;;;;;-1.87;62.34;101186.47;4988140;28;20054;-79
2023/03/16 01:11:43;;;;;;;0.65;0.20;;;;;;;-1.88;62.59;101192.41;4992291;28;20069;-79
2023/03/16 01:14:11;;;;;;;1.40;1.02;;;;;;;-1.90;62.57;101200.84;4985581;28;20077;-79
2023/03/16 01:16:38;;;;;;;0.95;0.55;;;;;;;-1.93;62.18;101200.72;4989554;28;20055;-79
2023/03/16 01:19:05;;;;;;;4.43;0.13;;;;;;;-2.14;62.58;101167.47;4991938;28;20050;-79
2023/03/16 01:21:35;;;;;;;0.25;0.10;;;;;;;-1.96;62.67;101205.72;4991551;28;20112;-79
2023/03/16 01:24:03;;;;;;;2.92;0.20;;;;;;;-1.97;62.64;101216.75;4994654;28;20057;-79
2023/03/16 01:26:31;;;;;;;2.05;0.20;;;;;;;-2.04;62.64;101213.97;4992275;28;20061;-79
2023/03/16 01:28:58;;;;;;;2.47;1.17;;;;;;;-2.25;62.69;101182.38;4993909;28;20054;-79
2023/03/16 01:31:24;;;;;;;5.65;0.20;;;;;;;-2.02;62.53;101234.53;4994347;28;20046;-79
2023/03/16 01:33:52;;;;;;;0.50;0.10;;;;;;;-2.03;62.56;101231.06;4992807;28;20502;-78
2023/03/16 01:36:21;;;;;;;1.67;0.40;;;;;;;-2.05;62.79;101240.38;4986962;28;20046;-78
2023/03/16 01:38:50;;;;;;;3.42;0.30;;;;;;;-2.20;62.45;101218.41;4988015;28;20053;-78
2023/03/16 01:41:17;;;;;;;1.20;0.20;;;;;;;-2.22;62.72;101218.38;4987200;28;20046;-78
2023/03/16 01:43:44;;;;;;;1.20;0.30;;;;;;;-2.16;62.72;101233.06;4987343;28;20054;-78
2023/03/16 01:46:18;;;;;;;3.88;2.15;;;;;;;-2.16;62.67;101235.63;4988249;28;20435;-78
2023/03/16 01:48:50;;;;;;;1.60;0.30;;;;;;;-2.16;62.86;101246.75;4986560;28;20499;-78
2023/03/16 01:51:23;;;;;;;4.03;1.40;;;;;;;-2.16;62.73;101254.44;4988336;28;20487;-79
2023/03/16 01:53:55;;;;;;;1.75;0.30;;;;;;;-2.22;62.93;101254.19;4988392;28;20406;-78
2023/03/16 01:56:25;;;;;;;1.60;0.30;;;;;;;-2.19;62.72;101261.09;4990049;28;20042;-78
2023/03/16 01:58:57;;;;;;;1.77;0.35;;;;;;;-2.31;62.82;101253.78;4994028;28;20712;-78
2023/03/16 02:01:25;;;;;;;2.65;0.20;;;;;;;-2.39;62.74;101245.81;4984905;28;20050;-78
2023/03/16 02:03:57;;;;;;;1.20;0.20;;;;;;;-2.31;63.11;101264.03;4981375;28;20055;-78
2023/03/16 02:06:24;;;;;;;0.75;0.20;;;;;;;-2.42;62.98;101260.16;4988867;28;20063;-78
2023/03/16 02:08:55;;;;;;;2.05;0.20;;;;;;;-2.33;63.05;101292.13;4988141;28;20406;-77
2023/03/16 02:11:23;;;;;;;3.92;0.20;;;;;;;-2.49;63.39;101269.25;4986297;28;20050;-78
2023/03/16 02:13:51;;;;;;;0.75;0.20;;;;;;;-2.43;63.00;101278.88;4985531;28;20052;-78
2023/03/16 02:16:21;;;;;;;3.50;0.20;;;;;;;-2.41;62.85;101297.72;4987151;28;20050;-78
2023/03/16 02:18:50;;;;;;;2.05;0.40;;;;;;;-2.41;62.93;101300.28;4987519;28;20050;-77
2023/03/16 02:21:25;;;;;;;0.50;0.20;;;;;;;-2.50;63.80;101282.88;4986068;28;20046;-78
2023/03/16 02:23:53;;;;;;;2.03;0.30;;;;;;;-2.50;63.14;101299.09;4990914;28;20466;-78
2023/03/16 02:26:29;;;;;;;0.40;0.20;;;;;;;-2.46;63.25;101312.88;4986760;28;20165;-78
2023/03/16 02:29:11;;;;;;;1.52;0.32;;;;;;;-2.50;63.36;101314.44;4980868;28;20062;-77
2023/03/16 02:31:40;;;;;;;0.80;0.20;;;;;;;-2.50;63.24;101316.13;4990431;28;20050;-77
2023/03/16 02:34:07;;;;;;;3.60;0.30;;;;;;;-2.57;63.32;101304.72;4983849;28;20522;-78
2023/03/16 02:36:36;;;;;;;1.35;0.30;;;;;;;-2.58;63.30;101317.47;4989369;28;20049;-78
2023/03/16 02:39:04;;;;;;;0.68;0.20;;;;;;;-2.64;62.94;101299.31;4990505;28;20133;-77
2023/03/16 02:41:31;;;;;;;3.63;0.20;;;;;;;-2.58;63.20;101326.00;4983557;28;20093;-77
2023/03/16 02:44:04;;;;;;;2.25;0.40;;;;;;;-2.79;63.47;101305.50;4988472;28;20051;-77
2023/03/16 02:46:34;;;;;;;1.20;0.22;;;;;;;-2.60;63.40;101339.53;4989123;28;20087;-78
2023/03/16 02:49:08;;;;;;;0.88;0.68;;;;;;;-2.75;63.54;101322.72;4992653;28;20129;-78
2023/03/16 02:51:35;;;;;;;0.82;0.38;;;;;;;-2.63;63.54;101347.94;4988717;28;20479;-78
2023/03/16 02:54:02;;;;;;;1.98;0.10;;;;;;;-2.78;63.39;101327.69;4991953;28;20053;-77
2023/03/16 02:56:29;;;;;;;1.27;0.20;;;;;;;-2.67;63.65;101348.63;4987862;28;20056;-77
2023/03/16 02:58:56;;;;;;;1.40;0.20;;;;;;;-2.82;63.57;101327.47;4990915;28;20054;-78
2023/03/16 03:01:23;;;;;;;2.78;0.17;;;;;;;-2.71;63.64;101356.97;4991615;28;20144;-77
2023/03/16 03:03:51;;;;;;;1.02;0.20;;;;;;;-2.74;63.70;101349.16;4987887;28;20050;-77
2023/03/16 03:06:19;;;;;;;0.65;0.20;;;;;;;-2.73;63.53;101358.59;4990809;28;20387;-77
2023/03/16 03:08:46;;;;;;;1.23;0.30;;;;;;;-2.76;63.72;101367.00;4984609;28;20058;-77
2023/03/16 03:11:13;;;;;;;2.05;0.20;;;;;;;-2.87;63.46;101357.09;4989243;28;20042;-77
2023/03/16 03:13:43;;;;;;;0.30;0.15;;;;;;;-2.80;63.41;101366.78;4990158;28;20045;-77
2023/03/16 03:16:10;;;;;;;2.38;0.20;;;;;;;-2.81;63.64;101375.28;4991122;28;20069;-78
2023/03/16 03:18:37;;;;;;;1.33;0.20;;;;;;;-2.84;63.57;101381.13;4981235;28;20052;-77
2023/03/16 03:21:04;;;;;;;0.63;0.20;;;;;;;-2.95;63.71;101369.53;4990659;28;20042;-77
2023/03/16 03:23:33;;;;;;;0.32;0.17;;;;;;;-2.94;63.78;101382.34;4980415;28;20055;-77
2023/03/16 03:26:01;;;;;;;1.90;0.13;;;;;;;-3.02;63.81;101370.91;4985837;28;20110;-78
2023/03/16 03:28:29;;;;;;;0.32;0.10;;;;;;;-2.90;63.76;101400.38;4988553;28;20047;-77
2023/03/16 03:30:56;;;;;;;5.65;0.28;;;;;;;-2.95;63.75;101401.06;4993368;28;20046;-74
2023/03/16 03:33:23;;;;;;;0.85;0.20;;;;;;;-2.95;63.78;101406.19;4991464;28;20417;-71
2023/03/16 03:35:56;;;;;;;0.52;0.10;;;;;;;-2.95;63.60;101415.53;4988948;28;20046;-71
2023/03/16 03:38:24;;;;;;;0.45;0.20;;;;;;;-2.97;63.84;101423.13;4990823;28;20101;-71
2023/03/16 03:40:57;;;;;;;0.50;0.20;;;;;;;-2.97;63.95;101418.00;4992142;28;20049;-72
2023/03/16 03:43:24;;;;;;;1.05;0.20;;;;;;;-2.99;63.61;101424.75;4990662;28;20104;-72
2023/03/16 03:45:56;;;;;;;3.08;0.20;;;;;;;-3.02;63.83;101427.13;4990554;28;20047;-71
2023/03/16 03:48:23;;;;;;;1.30;0.25;;;;;;;-2.99;63.80;101437.53;4989460;28;20054;-71
2023/03/16 03:50:50;;;;;;;2.03;0.70;;;;;;;-3.01;63.91;101433.16;4990341;28;20038;-71
2023/03/16 03:53:18;;;;;;;0.73;0.10;;;;;;;-3.03;63.89;101439.84;4981825;28;20042;-72
2023/03/16 03:55:44;;;;;;;0.50;0.20;;;;;;;-3.06;63.99;101435.47;4991508;28;20061;-71
2023/03/16 03:58:13;;;;;;;0.20;0.10;;;;;;;-3.11;63.89;101429.25;4987894;28;20408;-71
2023/03/16 04:00:40;;;;;;;2.13;0.20;;;;;;;-3.10;63.94;101438.69;4986997;28;20038;-71
2023/03/16 04:03:07;;;;;;;0.77;0.20;;;;;;;-3.11;63.91;101449.72;4991718;28;20518;-71
2023/03/16 04:05:34;;;;;;;0.60;0.38;;;;;;;-3.13;63.73;101446.22;4993235;28;20450;-71
2023/03/16 04:08:00;;;;;;;3.70;0.20;;;;;;;-3.15;63.91;101447.81;4991450;28;20054;-72
2023/03/16 04:10:30;;;;;;;0.43;0.20;;;;;;;-3.17;63.89;101449.41;4991758;28;20050;-71
2023/03/16 04:12:56;;;;;;;0.50;0.20;;;;;;;-3.18;63.82;101457.91;4990425;28;20054;-72
2023/03/16 04:15:25;;;;;;;1.52;0.20;;;;;;;-3.22;64.06;101448.31;4991898;28;20061;-71
2023/03/16 04:17:52;;;;;;;1.23;0.10;;;;;;;-3.27;64.27;101447.25;4993379;28;20050;-72
2023/03/16 04:20:20;;;;;;;0.17;0.15;;;;;;;-3.27;64.12;101457.47;4990160;28;20116;-71
2023/03/16 04:22:47;;;;;;;1.00;0.20;;;;;;;-3.26;63.93;101466.88;4989632;28;20446;-72
2023/03/16 04:25:17;;;;;;;0.13;0.10;;;;;;;-3.29;64.02;101465.03;4990731;28;20523;-72
2023/03/16 04:27:45;;;;;;;3.72;0.20;;;;;;;-3.30;64.32;101457.28;4989688;28;20479;-72
2023/03/16 04:30:14;;;;;;;1.13;0.65;;;;;;;-3.34;64.18;101461.38;4990924;28;20073;-71
2023/03/16 04:32:42;;;;;;;1.08;0.20;;;;;;;-3.34;64.47;101470.72;4991249;28;20072;-72
2023/03/16 04:35:10;;;;;;;1.85;0.30;;;;;;;-3.36;64.31;101474.88;4991319;28;20064;-71
2023/03/16 04:37:37;;;;;;;1.48;0.20;;;;;;;-3.38;64.40;101481.59;4990510;28;20046;-71
2023/03/16 04:40:10;;;;;;;0.22;0.20;;;;;;;-3.42;64.06;101481.44;4991725;28;20050;-71
2023/03/16 04:42:37;;;;;;;2.20;0.20;;;;;;;-3.44;64.38;101482.19;4986868;28;20046;-72
2023/03/16 04:45:05;;;;;;;1.20;0.20;;;;;;;-3.44;64.49;101485.59;4991633;28;20506;-71
2023/03/16 04:47:33;;;;;;;0.80;0.10;;;;;;;-3.45;64.34;101488.94;4986792;28;20474;-71
2023/03/16 04:50:02;;;;;;;0.85;0.20;;;;;;;-3.49;64.60;101481.94;4991973;28;20101;-71
2023/03/16 04:52:29;;;;;;;1.17;0.30;;;;;;;-3.49;64.21;101481.94;4989043;28;20054;-71
2023/03/16 04:54:56;;;;;;;0.22;0.10;;;;;;;-3.49;64.20;101489.59;4989961;28;20482;-71
2023/03/16 04:57:24;;;;;;;0.98;0.15;;;;;;;-3.53;64.54;101485.16;4991117;28;20050;-72
2023/03/16 04:59:51;;;;;;;0.40;0.17;;;;;;;-3.51;64.32;101493.75;4987295;28;20050;-72
2023/03/16 05:02:18;;;;;;;0.60;0.30;;;;;;;-3.53;64.28;101503.03;4983857;28;20050;-71
2023/03/16 05:04:45;;;;;;;0.95;0.17;;;;;;;-3.54;64.50;101503.81;4988573;28;20070;-71
2023/03/16 05:07:14;;;;;;;2.13;0.15;;;;;;;-3.56;64.68;101510.50;4983601;28;20538;-70
2023/03/16 05:09:41;;;;;;;1.20;0.20;;;;;;;-3.57;64.32;101513.00;4986675;28;21306;-71
2023/03/16 05:12:09;;;;;;;0.13;0.10;;;;;;;-3.58;64.49;101514.69;4989368;28;20101;-75
2023/03/16 05:14:36;;;;;;;0.85;0.10;;;;;;;-3.60;64.44;101516.28;4988141;28;20043;-75
2023/03/16 05:17:04;;;;;;;0.20;0.10;;;;;;;-3.58;64.74;101526.59;4987661;28;20051;-76
2023/03/16 05:19:31;;;;;;;6.07;0.43;;;;;;;-3.59;64.41;101517.16;4987433;28;20061;-80
2023/03/16 05:21:57;;;;;;;0.60;0.30;;;;;;;-3.60;64.51;101529.03;4987381;28;20046;-79
2023/03/16 05:24:26;;;;;;;0.40;0.20;;;;;;;-3.62;64.57;101530.63;4986644;28;20503;-75
2023/03/16 05:26:53;;;;;;;0.52;0.10;;;;;;;-3.60;64.64;101538.38;4984528;28;20065;-78
2023/03/16 05:29:20;;;;;;;1.17;0.10;;;;;;;-3.64;65.00;101532.25;4988828;28;20518;-78
2023/03/16 05:31:47;;;;;;;0.90;0.10;;;;;;;-3.60;64.45;101544.38;4982874;28;20138;-78
2023/03/16 05:34:14;;;;;;;0.57;0.22;;;;;;;-3.58;64.87;101554.66;4991043;28;20563;-78
2023/03/16 05:36:43;;;;;;;1.70;0.20;;;;;;;-3.58;64.55;101552.13;4992387;28;20046;-82
2023/03/16 05:39:10;;;;;;;0.55;0.20;;;;;;;-3.59;65.24;101555.44;4988417;28;20058;-76
2023/03/16 05:41:39;;;;;;;1.35;0.20;;;;;;;-3.58;64.74;101555.53;4987624;28;20046;-74
2023/03/16 05:44:06;;;;;;;1.67;0.25;;;;;;;-3.57;64.94;101553.88;4992045;28;20484;-74
2023/03/16 05:46:33;;;;;;;2.47;0.30;;;;;;;-3.59;65.04;101560.56;4990678;28;20046;-79
2023/03/16 05:49:00;;;;;;;0.20;0.20;;;;;;;-3.55;65.04;101562.50;4989211;28;20058;-75
2023/03/16 05:51:27;;;;;;;0.55;0.25;;;;;;;-3.54;64.76;101566.78;4988843;28;20050;-73
2023/03/16 05:53:56;;;;;;;0.30;0.10;;;;;;;-3.54;65.37;101572.75;4987522;28;20046;-73
2023/03/16 05:56:24;;;;;;;3.75;0.30;;;;;;;-3.55;65.11;101568.47;4986828;28;20113;-73
2023/03/16 05:58:53;;;;;;;2.95;0.20;;;;;;;-3.53;65.30;101577.09;4989489;28;20105;-73
2023/03/16 06:01:21;;;;;;;0.95;0.20;;;;;;;-3.51;65.47;101578.03;4985171;28;20054;-73
2023/03/16 06:03:50;;;;;;;0.10;0.10;;;;;;;-3.50;65.19;101582.34;4989754;28;20046;-73
2023/03/16 06:06:18;;;;;;;0.30;0.20;;;;;;;-3.49;65.51;101581.53;4985366;28;20046;-71
2023/03/16 06:08:44;;;;;;;2.15;0.20;;;;;;;-3.48;65.41;101585.84;4985873;28;20407;-72
2023/03/16 06:11:12;;;;;;;1.95;0.20;;;;;;;-3.47;65.14;101584.16;4987804;28;20511;-72
2023/03/16 06:13:39;;;;;;;0.80;0.20;;;;;;;-3.46;65.17;101594.47;4986144;28;20053;-72
2023/03/16 06:16:10;;;;;;;1.05;0.20;;;;;;;-3.44;65.33;101595.44;4984975;28;20506;-72
2023/03/16 06:18:38;;;;;;;0.50;0.20;;;;;;;-3.44;65.59;101598.00;4985195;28;20560;-72
2023/03/16 06:21:05;;;;;;;2.25;0.10;;;;;;;-3.38;65.26;101606.78;4986167;28;20089;-72
2023/03/16 06:23:32;;;;;;;2.10;0.10;;;;;;;-3.37;65.29;101604.28;4986859;28;20483;-72
2023/03/16 06:25:59;;;;;;;1.30;0.20;;;;;;;-3.34;65.34;101608.69;4985876;28;20054;-72
2023/03/16 06:28:27;;;;;;;1.75;0.20;;;;;;;-3.32;65.31;101618.19;4987962;28;20491;-72
2023/03/16 06:30:54;;;;;;;1.02;0.13;;;;;;;-3.29;65.21;101618.34;4985761;28;20050;-72
2023/03/16 06:33:23;;;;;;;0.43;0.20;;;;;;;-3.25;65.09;101624.47;4988458;28;20070;-74
2023/03/16 06:35:50;;;;;;;0.70;0.25;;;;;;;-3.24;65.50;101632.22;4984006;28;20514;-73
2023/03/16 06:38:17;;;;;;;3.05;0.15;;;;;;;-3.20;65.29;101630.69;4986489;28;20054;-73
2023/03/16 06:40:44;;;;;;;1.85;0.20;;;;;;;-3.18;65.26;101632.53;4985447;28;20129;-73
2023/03/16 06:43:12;;;;;;;2.00;0.40;;;;;;;-3.13;65.34;101634.44;4985963;28;20054;-72
2023/03/16 06:45:38;;;;;;;2.35;0.68;;;;;;;-3.09;65.37;101637.22;4987303;28;20081;-73
2023/03/16 06:48:08;;;;;;;0.93;0.20;;;;;;;-3.09;65.11;101627.00;4984518;28;20066;-73
2023/03/16 06:50:37;;;;;;;0.40;0.20;;;;;;;-3.01;65.19;101640.19;4988503;28;20057;-73
2023/03/16 06:53:03;;;;;;;4.75;0.13;;;;;;;-3.03;65.26;101632.41;4987732;28;20431;-73
2023/03/16 06:55:30;;;;;;;1.92;0.22;;;;;;;-2.94;65.31;101647.34;4989493;28;20426;-73
2023/03/16 06:57:57;;;;;;;2.35;0.20;;;;;;;-2.90;65.21;101658.59;4987787;28;20057;-73
2023/03/16 07:00:24;;;;;;;3.75;0.20;;;;;;;-2.85;65.44;101659.69;4988978;28;20054;-73
2023/03/16 07:02:51;;;;;;;2.30;0.30;;;;;;;-2.82;65.46;101670.09;4986867;28;20524;-73
2023/03/16 07:05:18;;;;;;;2.72;0.20;;;;;;;-2.77;65.27;101666.09;4988027;28;20050;-73
2023/03/16 07:07:47;;;;;;;1.15;0.20;;;;;;;-2.73;65.40;101673.13;4987305;28;20073;-73
2023/03/16 07:10:17;;;;;;;3.92;0.22;;;;;;;-2.68;65.23;101679.31;4987657;28;20494;-73
2023/03/16 07:12:44;;;;;;;2.20;0.55;;;;;;;-2.64;65.39;101681.25;4982338;28;20050;-73
2023/03/16 07:15:12;;;;;;;1.33;0.20;;;;;;;-2.60;65.23;101685.69;4986415;28;20054;-74
2023/03/16 07:17:39;;;;;;;0.95;0.30;;;;;;;-2.54;65.32;101692.78;4984402;28;20042;-74
2023/03/16 07:20:09;;;;;;;2.42;0.20;;;;;;;-2.47;65.32;101699.13;4983884;28;20500;-74
2023/03/16 07:22:36;;;;;;;0.73;0.30;;;;;;;-2.43;65.07;101704.44;4984744;28;20074;-74
2023/03/16 07:25:06;;;;;;;1.45;0.20;;;;;;;-2.37;65.22;101708.97;4985441;28;20063;-74
2023/03/16 07:27:33;;;;;;;1.98;0.20;;;;;;;-2.32;65.17;101704.97;4985583;28;20051;-74
2023/03/16 07:30:00;;;;;;;1.55;0.10;;;;;;;-2.27;64.91;101719.75;4986632;28;20046;-73
2023/03/16 07:32:27;;;;;;;1.38;0.20;;;;;;;-2.23;64.96;101707.97;4986397;28;20050;-73
2023/03/16 07:34:53;;;;;;;3.53;0.30;;;;;;;-2.14;65.06;101721.19;4989045;28;20489;-73
2023/03/16 07:37:20;;;;;;;2.13;0.20;;;;;;;-2.06;64.77;101716.47;4985839;28;20058;-73
2023/03/16 07:39:47;;;;;;;1.33;0.20;;;;;;;-1.96;64.63;101728.03;4986632;28;20047;-72
2023/03/16 07:42:16;;;;;;;0.25;0.15;;;;;;;-1.88;64.81;101721.56;4985311;28;20053;-73
2023/03/16 07:44:42;;;;;;;1.23;0.10;;;;;;;-1.79;65.00;101727.13;4988458;28;20058;-73
2023/03/16 07:47:12;;;;;;;1.58;0.20;;;;;;;-1.70;64.78;101732.69;4987030;28;20047;-73
2023/03/16 07:49:40;;;;;;;3.88;0.30;;;;;;;-1.60;64.50;101737.41;4986599;28;20057;-73
2023/03/16 07:52:07;;;;;;;1.50;0.30;;;;;;;-1.48;64.07;101733.66;4987635;28;20133;-73
2023/03/16 07:54:34;;;;;;;4.00;0.22;;;;;;;-1.37;64.56;101742.72;4984048;28;20161;-73
2023/03/16 07:57:01;;;;;;;2.17;0.20;;;;;;;-1.27;64.70;101744.91;4988902;28;20511;-73
2023/03/16 07:59:30;;;;;;;3.25;0.30;;;;;;;-1.14;64.35;101741.19;4987189;28;20055;-74
2023/03/16 08:01:57;;;;;;;4.07;0.30;;;;;;;-1.07;64.18;101735.53;4988700;28;20047;-73
2023/03/16 08:04:24;;;;;;;0.98;0.20;;;;;;;-0.93;64.11;101744.72;4987334;28;20054;-74
2023/03/16 08:06:58;;;;;;;4.13;0.47;;;;;;;-0.79;63.88;101747.00;4987909;28;20501;-74
2023/03/16 08:09:25;;;;;;;0.93;0.40;;;;;;;-0.66;63.81;101745.84;4986587;28;20043;-74
2023/03/16 08:11:52;;;;;;;2.63;0.20;;;;;;;-0.58;63.57;101750.47;4987329;28;20778;-74
2023/03/16 08:14:19;;;;;;;3.60;0.82;;;;;;;-0.43;64.22;101750.25;4986394;28;20435;-73
2023/03/16 08:16:47;;;;;;;0.82;0.20;;;;;;;-0.32;64.00;101754.13;4986797;28;20050;-74
2023/03/16 08:19:14;;;;;;;2.85;0.30;;;;;;;-0.29;63.37;101746.56;4986623;28;20443;-74
2023/03/16 08:21:41;;;;;;;4.13;0.30;;;;;;;-0.11;63.31;101764.44;4988496;28;20054;-73
2023/03/16 08:24:08;;;;;;;5.05;0.30;;;;;;;0.00;63.47;101764.88;4989862;28;20046;-74
2023/03/16 08:26:35;;;;;;;1.95;0.30;;;;;;;0.09;62.92;101767.81;4991655;28;20619;-73
2023/03/16 08:29:02;;;;;;;1.25;0.55;;;;;;;0.18;63.17;101767.28;4982891;28;20065;-73
2023/03/16 08:31:29;;;;;;;4.53;0.30;;;;;;;0.24;62.72;101771.78;4989050;28;20376;-74
2023/03/16 08:33:58;;;;;;;1.75;0.50;;;;;;;0.40;62.63;101784.44;4983368;28;20054;-74
2023/03/16 08:36:26;;;;;;;1.10;0.40;;;;;;;0.49;62.46;101783.91;4990128;28;20070;-74
2023/03/16 08:38:53;;;;;;;4.53;0.32;;;;;;;0.58;62.35;101792.84;4992471;28;20046;-74
2023/03/16 08:41:20;;;;;;;1.80;0.40;;;;;;;0.66;62.55;101790.59;4989906;28;20058;-73
2023/03/16 08:43:47;;;;;;;1.77;0.30;;;;;;;0.76;61.74;101791.78;4992884;28;20046;-74
2023/03/16 08:46:15;;;;;;;0.82;0.30;;;;;;;0.85;61.77;101800.75;4989512;28;20054;-73
2023/03/16 08:48:42;;;;;;;0.93;0.30;;;;;;;0.95;61.14;101807.09;4992162;28;20050;-74
2023/03/16 08:51:11;;;;;;;1.30;0.40;;;;;;;1.04;60.92;101812.59;4990031;28;20054;-74
2023/03/16 08:53:38;;;;;;;4.00;0.30;;;;;;;1.12;61.58;101810.31;4991219;28;20054;-73
2023/03/16 08:56:06;;;;;;;2.75;0.30;;;;;;;1.22;61.40;101825.25;4989693;28;20057;-72
2023/03/16 08:58:33;;;;;;;3.83;0.30;;;;;;;1.29;61.39;101818.66;4990127;28;20051;-74
2023/03/16 09:01:00;;;;;;;3.20;0.30;;;;;;;1.35;61.15;101813.72;4988366;28;20050;-73
2023/03/16 09:03:27;;;;;;;2.15;0.63;;;;;;;1.37;60.46;101806.94;4992133;28;20137;-73
2023/03/16 09:05:56;;;;;;;2.42;0.30;;;;;;;1.45;60.30;101818.38;4990710;28;20046;-73
2023/03/16 09:08:24;;;;;;;0.57;0.22;;;;;;;1.48;60.99;101818.47;4990667;28;20050;-73
2023/03/16 09:10:59;;;;;;;1.00;0.20;;;;;;;1.56;60.10;101840.19;4988797;28;20046;-73
2023/03/16 09:13:26;;;;;;;1.15;0.30;;;;;;;1.62;60.06;101843.81;4990161;28;20046;-73
2023/03/16 09:15:53;;;;;;;5.03;0.43;;;;;;;1.67;60.62;101844.88;4985766;28;20786;-73
2023/03/16 09:18:20;;;;;;;2.92;0.50;;;;;;;1.72;60.29;101851.06;4988328;28;20047;-71
2023/03/16 09:20:47;;;;;;;1.10;0.30;;;;;;;1.76;59.84;101848.63;4987238;28;20507;-73
2023/03/16 09:23:14;;;;;;;5.55;1.30;;;;;;;1.82;60.18;101853.13;4989600;28;20105;-73
2023/03/16 09:25:42;;;;;;;2.05;0.47;;;;;;;1.86;59.48;101855.00;4987252;28;20412;-73
2023/03/16 09:28:10;;;;;;;1.75;0.30;;;;;;;1.91;59.23;101865.47;4989728;28;20057;-72
2023/03/16 09:30:37;;;;;;;5.05;0.30;;;;;;;1.94;59.39;101868.16;4988387;28;20050;-73
2023/03/16 09:33:04;;;;;;;4.68;0.50;;;;;;;1.94;58.81;101853.56;4989671;28;20052;-72
2023/03/16 09:35:32;;;;;;;4.78;0.35;;;;;;;2.36;58.36;101870.38;4988644;28;20046;-72
2023/03/16 09:37:58;;;;;;;4.20;0.30;;;;;;;2.46;58.26;101865.56;4986966;28;20038;-73
2023/03/16 09:40:27;;;;;;;4.05;0.38;;;;;;;2.35;58.73;101866.06;4990848;28;20050;-73
2023/03/16 09:43:10;;;;;;;2.05;0.20;;;;;;;2.44;58.70;101872.38;4988346;28;20050;-72
2023/03/16 09:45:42;;;;;;;5.10;0.30;;;;;;;2.54;58.06;101872.69;4987679;28;20049;-73
2023/03/16 09:48:10;;;;;;;2.10;0.30;;;;;;;2.66;57.79;101867.91;4987676;28;20056;-72
2023/03/16 09:50:40;;;;;;;6.30;0.35;;;;;;;2.83;57.64;101878.78;4989964;28;20117;-73
2023/03/16 09:53:17;;;;;;;4.45;0.30;;;;;;;2.88;57.38;101875.50;4989371;28;20042;-73
2023/03/16 09:55:48;;;;;;;3.67;0.30;;;;;;;2.85;57.84;101884.88;4989607;28;20134;-73
2023/03/16 09:58:20;;;;;;;0.68;0.25;;;;;;;2.85;57.42;101888.31;4988636;28;20828;-73
2023/03/16 10:00:55;;;;;;;1.88;0.38;;;;;;;2.85;56.46;101884.88;4988345;28;20050;-73
2023/03/16 10:03:43;;;;;;;2.70;0.30;;;;;;;2.91;56.17;101891.06;4989199;28;20834;-72
2023/03/16 10:06:12;;;;;;;0.68;0.20;;;;;;;2.93;57.35;101889.44;4986663;28;20078;-73
2023/03/16 10:08:40;;;;;;;2.17;0.47;;;;;;;2.98;54.92;101893.84;4989462;28;20132;-73
2023/03/16 10:11:31;;;;;;;3.20;0.20;;;;;;;3.01;56.44;101896.50;4988575;28;20082;-73
2023/03/16 10:14:04;;;;;;;2.35;0.30;;;;;;;3.02;56.30;101895.72;4986256;28;20050;-73
2023/03/16 10:16:38;;;;;;;2.35;0.30;;;;;;;3.03;55.95;101900.03;4989665;28;20046;-73
2023/03/16 10:19:13;;;;;;;3.67;0.30;;;;;;;3.05;56.20;101896.66;4984371;28;20487;-73
2023/03/16 10:21:41;;;;;;;3.08;0.93;;;;;;;3.09;55.93;101905.38;4986623;28;20054;-73
2023/03/16 10:24:18;;;;;;;2.20;0.30;;;;;;;3.13;56.41;101899.47;4985405;28;20046;-72
2023/03/16 10:26:53;;;;;;;4.75;0.20;;;;;;;3.17;56.44;101911.66;4988321;28;20065;-73
2023/03/16 10:29:21;;;;;;;2.40;0.30;;;;;;;3.20;56.37;101909.16;4986569;28;20053;-73
2023/03/16 10:31:48;;;;;;;3.35;0.40;;;;;;;3.23;56.71;101914.41;4987736;28;20050;-72
2023/03/16 10:34:15;;;;;;;2.63;0.30;;;;;;;3.22;56.31;101912.66;4987246;28;20050;-73
2023/03/16 10:36:44;;;;;;;0.95;0.30;;;;;;;3.27;56.07;101916.25;4987805;28;20549;-73
2023/03/16 10:39:13;;;;;;;4.60;0.40;;;;;;;3.29;56.03;101921.47;4986194;28;20050;-73
2023/03/16 10:41:44;;;;;;;3.63;0.40;;;;;;;3.30;56.32;101916.34;4988306;28;20054;-73
2023/03/16 10:44:13;;;;;;;1.73;0.30;;;;;;;3.31;55.72;101923.25;4986770;28;20137;-73
2023/03/16 10:46:46;;;;;;;10.07;0.40;;;;;;;3.34;55.88;101925.06;4988086;28;20050;-72
2023/03/16 10:49:24;;;;;;;3.70;0.30;;;;;;;3.35;56.19;101919.91;4985466;28;20046;-73
2023/03/16 10:51:52;;;;;;;5.72;0.35;;;;;;;3.39;56.09;101931.25;4989655;28;20042;-73
2023/03/16 10:54:27;;;;;;;3.47;0.40;;;;;;;3.41;55.99;101928.69;4984327;28;20043;-73
2023/03/16 10:56:55;;;;;;;9.27;0.40;;;;;;;3.42;55.88;101936.50;4988412;28;20696;-73
2023/03/16 10:59:30;;;;;;;0.60;0.20;;;;;;;3.43;55.60;101924.44;4989028;28;20050;-73
2023/03/16 11:01:59;;;;;;;2.63;0.35;;;;;;;3.43;55.94;101937.38;4989017;28;20104;-72
2023/03/16 11:04:31;;;;;;;2.55;0.30;;;;;;;3.44;55.72;101933.94;4989443;28;20042;-73
2023/03/16 11:06:59;;;;;;;1.95;0.20;;;;;;;3.35;54.88;101924.22;4985566;28;20423;-73
2023/03/16 11:09:31;;;;;;;3.38;0.30;;;;;;;3.44;55.01;101936.53;4987126;28;20444;-73
2023/03/16 11:12:00;;;;;;;1.30;0.20;;;;;;;3.44;54.98;101949.44;4987212;28;20050;-70
2023/03/16 11:14:28;;;;;;;2.45;0.40;;;;;;;3.37;55.53;101938.94;4980059;28;20046;-73
2023/03/16 11:17:04;;;;;;;2.72;0.93;;;;;;;3.46;55.63;101958.13;4984846;28;20049;-72
2023/03/16 11:19:34;;;;;;;1.80;0.30;;;;;;;3.46;54.08;101953.81;4987759;28;20046;-73
2023/03/16 11:22:06;;;;;;;1.88;0.30;;;;;;;3.45;53.70;101951.22;4986379;28;20065;-73
2023/03/16 11:24:44;;;;;;;2.63;0.30;;;;;;;3.46;53.90;101947.78;4988523;28;20054;-73
2023/03/16 11:27:20;;;;;;;0.60;0.20;;;;;;;3.47;54.42;101949.53;4986928;28;20503;-73
2023/03/16 11:29:58;;;;;;;2.08;0.30;;;;;;;3.47;54.53;101954.69;4989563;28;20058;-72
2023/03/16 11:32:31;;;;;;;0.73;0.22;;;;;;;3.48;53.25;101961.63;4986698;28;20057;-73
2023/03/16 11:34:57;;;;;;;0.65;0.30;;;;;;;3.49;53.38;101971.13;4986950;28;20057;-72